Time;durP1;ratioP1;P1;durP2;ratioP2;P2;SDS_P1;SDS_P2;PMS_P1;PMS_P2;Temp;Humidity;BMP_temperature;BMP_pressure;BME280_temperature;BME280_humidity;BME280_pressure;Samples;Min_cycle;Max_cycle;Signal;HPM_P1;HPM_P2
2023/07/25 00:00:34;;;;;;;13.77;7.03;;;;;;;15.25;100.00;95265.50;2091659;28;20499;-59
2023/07/25 00:01:35;;;;;;;10.55;6.93;;;;;;;15.34;100.00;95275.28;2091098;28;20049;-58
2023/07/25 00:02:36;;;;;;;13.32;6.18;;;;;;;15.34;100.00;95274.41;2091693;28;20060;-58
2023/07/25 00:03:38;;;;;;;13.07;7.22;;;;;;;15.36;100.00;95273.34;2091056;28;20045;-59
2023/07/25 00:04:39;;;;;;;10.20;6.50;;;;;;;15.37;100.00;95275.03;2091248;28;20045;-58
2023/07/25 00:05:40;;;;;;;11.00;7.00;;;;;;;15.36;100.00;95270.72;2091614;28;20049;-57
2023/07/25 00:06:41;;;;;;;14.50;6.72;;;;;;;15.36;100.00;95268.09;2091201;28;20083;-58
2023/07/25 00:07:42;;;;;;;12.50;7.03;;;;;;;15.37;100.00;95268.94;2091441;28;20060;-57
2023/07/25 00:08:43;;;;;;;12.15;6.85;;;;;;;15.38;100.00;95257.53;2091026;28;20067;-58
2023/07/25 00:09:44;;;;;;;11.85;6.63;;;;;;;15.38;100.00;95257.53;2091260;28;20044;-59
2023/07/25 00:10:46;;;;;;;15.77;7.10;;;;;;;15.30;100.00;95244.22;2091170;28;20056;-59
2023/07/25 00:11:47;;;;;;;12.35;7.30;;;;;;;15.37;100.00;95256.72;2091126;28;20040;-58
2023/07/25 00:12:52;;;;;;;12.15;7.15;;;;;;;15.35;100.00;95248.16;2091045;28;20040;-57
2023/07/25 00:13:54;;;;;;;11.23;6.82;;;;;;;15.36;100.00;95243.75;2091103;28;20487;-58
2023/07/25 00:14:55;;;;;;;12.30;6.93;;;;;;;15.38;100.00;95239.22;2090979;28;20056;-58
2023/07/25 00:15:56;;;;;;;12.77;6.28;;;;;;;15.38;100.00;95249.69;2091489;28;20052;-58
2023/07/25 00:16:57;;;;;;;13.18;6.90;;;;;;;15.35;100.00;95245.53;2090757;28;20048;-60
2023/07/25 00:17:58;;;;;;;15.80;7.55;;;;;;;15.37;100.00;95243.63;2090227;28;20056;-60
2023/07/25 00:18:59;;;;;;;10.25;7.32;;;;;;;15.36;100.00;95238.50;2090994;28;20055;-58
2023/07/25 00:20:00;;;;;;;11.60;6.80;;;;;;;15.40;100.00;95247.78;2090867;28;20063;-58
2023/07/25 00:21:01;;;;;;;14.75;7.28;;;;;;;15.39;100.00;95248.72;2090915;28;20060;-59
2023/07/25 00:22:03;;;;;;;11.35;7.18;;;;;;;15.31;100.00;95243.25;2090758;28;20056;-59
2023/07/25 00:23:04;;;;;;;13.43;6.65;;;;;;;15.34;100.00;95240.41;2090973;28;20056;-59
2023/07/25 00:24:05;;;;;;;13.45;7.10;;;;;;;15.37;100.00;95254.09;2090929;28;20040;-59
2023/07/25 00:25:06;;;;;;;11.10;6.60;;;;;;;15.37;100.00;95248.88;2091087;28;20052;-59
2023/07/25 00:26:07;;;;;;;14.93;6.85;;;;;;;15.36;100.00;95246.34;2082153;28;20473;-58
2023/07/25 00:27:09;;;;;;;21.08;7.07;;;;;;;15.36;100.00;95246.34;2082215;28;20064;-59
2023/07/25 00:28:10;;;;;;;14.07;7.50;;;;;;;15.32;100.00;95242.34;2091065;28;20067;-58
2023/07/25 00:29:11;;;;;;;13.05;7.55;;;;;;;15.34;100.00;95245.63;2090594;28;20408;-59
2023/07/25 00:30:12;;;;;;;12.80;6.95;;;;;;;15.32;100.00;95244.94;2090744;28;20052;-59
2023/07/25 00:31:14;;;;;;;12.00;7.20;;;;;;;15.32;100.00;95242.34;2091917;28;20358;-58
2023/07/25 00:32:15;;;;;;;12.18;7.22;;;;;;;15.32;100.00;95240.53;2090846;28;20044;-58
2023/07/25 00:33:16;;;;;;;16.90;7.22;;;;;;;15.32;100.00;95239.72;2090935;28;20037;-59
2023/07/25 00:34:17;;;;;;;12.98;7.00;;;;;;;15.29;100.00;95235.56;2091207;28;20045;-58
2023/07/25 00:35:18;;;;;;;15.45;6.25;;;;;;;15.31;100.00;95238.03;2090974;28;20049;-60
2023/07/25 00:36:19;;;;;;;16.15;7.25;;;;;;;15.31;100.00;95241.47;2091084;28;20045;-57
2023/07/25 00:37:20;;;;;;;13.38;6.57;;;;;;;15.31;100.00;95245.88;2090943;28;20049;-58
2023/07/25 00:38:21;;;;;;;13.48;6.70;;;;;;;15.31;100.00;95249.31;2089699;28;20068;-59
2023/07/25 00:39:22;;;;;;;13.23;6.88;;;;;;;15.32;100.00;95242.34;2089978;28;20057;-58
2023/07/25 00:40:24;;;;;;;14.35;6.85;;;;;;;15.31;100.00;95244.09;2090248;28;20052;-58
2023/07/25 00:41:25;;;;;;;10.65;6.53;;;;;;;15.30;100.00;95236.38;2090592;28;20059;-58
2023/07/25 00:42:26;;;;;;;12.30;6.13;;;;;;;15.23;100.00;95233.41;2090972;28;20055;-59
2023/07/25 00:43:27;;;;;;;12.00;6.13;;;;;;;15.32;100.00;95243.16;2089906;28;20049;-58
2023/07/25 00:44:28;;;;;;;14.20;7.10;;;;;;;15.34;100.00;95241.25;2089490;28;20488;-58
2023/07/25 00:45:29;;;;;;;14.95;7.00;;;;;;;15.34;100.00;95238.66;2091033;28;20048;-58
2023/07/25 00:46:31;;;;;;;13.35;6.13;;;;;;;15.36;100.00;95235.88;2081992;28;20045;-58
2023/07/25 00:47:32;;;;;;;13.73;7.43;;;;;;;15.36;100.00;95244.56;2082549;28;20374;-58
2023/07/25 00:48:33;;;;;;;12.70;6.93;;;;;;;15.36;100.00;95236.72;2090166;28;20353;-58
2023/07/25 00:49:34;;;;;;;15.77;6.53;;;;;;;15.35;100.00;95229.00;2074175;28;20050;-58
2023/07/25 00:50:35;;;;;;;14.13;7.07;;;;;;;15.35;100.00;95227.22;2082457;28;20048;-58
2023/07/25 00:51:37;;;;;;;12.30;6.47;;;;;;;15.34;100.00;95222.09;2090312;28;20467;-57
2023/07/25 00:52:38;;;;;;;11.90;6.57;;;;;;;15.36;100.00;95220.19;2090124;28;20496;-57
2023/07/25 00:53:39;;;;;;;12.35;6.50;;;;;;;15.36;100.00;95217.56;2089971;28;20049;-58
2023/07/25 00:54:49;;;;;;;13.70;7.05;;;;;;;15.27;100.00;95197.38;2082201;28;20048;-58
2023/07/25 00:55:50;;;;;;;11.60;6.53;;;;;;;15.34;100.00;95209.88;2090167;28;20053;-58
2023/07/25 00:56:51;;;;;;;14.25;6.97;;;;;;;15.34;100.00;95211.63;2081428;28;20046;-57
2023/07/25 00:57:52;;;;;;;14.73;6.90;;;;;;;15.35;100.00;95215.94;2081322;28;20350;-58
2023/07/25 00:58:54;;;;;;;12.18;6.40;;;;;;;15.35;100.00;95213.31;2091260;28;20060;-57
2023/07/25 00:59:55;;;;;;;12.77;6.13;;;;;;;15.35;100.00;95214.13;2090448;28;20472;-59
2023/07/25 01:01:03;;;;;;;18.23;7.80;;;;;;;15.33;100.00;95202.97;2090748;28;20072;-57
2023/07/25 01:02:04;;;;;;;15.15;7.38;;;;;;;15.35;100.00;95206.28;2090170;28;20060;-58
2023/07/25 01:03:05;;;;;;;12.32;6.72;;;;;;;15.36;100.00;95209.72;2081879;28;20516;-58
2023/07/25 01:04:06;;;;;;;11.02;6.43;;;;;;;15.35;100.00;95208.09;2074091;28;20429;-57
2023/07/25 01:05:08;;;;;;;14.43;7.50;;;;;;;15.20;100.00;95184.78;2081259;28;20054;-57
2023/07/25 01:06:12;;;;;;;14.00;6.95;;;;;;;15.35;100.00;95208.09;2090459;28;20048;-57
2023/07/25 01:07:14;;;;;;;9.15;6.30;;;;;;;15.34;100.00;95211.63;2089384;28;20056;-57
2023/07/25 01:08:15;;;;;;;11.73;7.07;;;;;;;15.34;100.00;95212.50;2089706;28;20111;-57
2023/07/25 01:09:29;;;;;;;19.10;6.50;;;;;;;15.35;100.00;95218.53;2090267;28;20100;-58
2023/07/25 01:10:32;;;;;;;14.80;6.47;;;;;;;15.33;100.00;95210.81;2065462;28;20042;-58
2023/07/25 01:11:33;;;;;;;12.50;6.35;;;;;;;15.32;100.00;95206.53;2068008;28;20518;-58
2023/07/25 01:12:34;;;;;;;11.10;6.55;;;;;;;15.35;100.00;95203.69;2097898;28;20060;-57
2023/07/25 01:13:35;;;;;;;12.05;6.50;;;;;;;15.32;100.00;95193.47;2090556;28;20044;-58
2023/07/25 01:14:37;;;;;;;10.32;6.53;;;;;;;15.34;100.00;95201.16;2090180;28;20053;-58
2023/07/25 01:15:38;;;;;;;13.13;6.30;;;;;;;15.34;100.00;95203.78;2090758;28;20052;-58
2023/07/25 01:16:39;;;;;;;12.45;6.32;;;;;;;15.34;100.00;95201.16;2081904;28;20072;-57
2023/07/25 01:17:40;;;;;;;11.90;7.18;;;;;;;15.34;100.00;95204.63;2065741;28;20061;-59
2023/07/25 01:18:41;;;;;;;11.10;6.70;;;;;;;15.37;100.00;95198.31;2073616;28;20054;-57
2023/07/25 01:19:44;;;;;;;13.15;6.20;;;;;;;15.30;100.00;95184.06;2081579;28;20064;-57
2023/07/25 01:20:46;;;;;;;11.98;7.18;;;;;;;15.32;100.00;95198.69;2089472;28;20049;-58
2023/07/25 01:21:47;;;;;;;13.70;6.80;;;;;;;15.37;100.00;95208.78;2073595;28;20049;-57
2023/07/25 01:22:48;;;;;;;16.85;8.27;;;;;;;15.37;100.00;95206.16;2073995;28;20049;-58
2023/07/25 01:23:49;;;;;;;11.20;6.15;;;;;;;15.39;100.00;95206.88;2098391;28;20385;-59
2023/07/25 01:24:50;;;;;;;10.10;6.72;;;;;;;15.39;100.00;95212.09;2081239;28;20054;-58
2023/07/25 01:25:51;;;;;;;13.00;7.05;;;;;;;15.40;100.00;95204.16;2065887;28;20105;-58
2023/07/25 01:26:52;;;;;;;11.82;6.55;;;;;;;15.40;100.00;95205.94;2082142;28;20524;-57
2023/07/25 01:27:53;;;;;;;16.75;7.10;;;;;;;15.41;100.00;95210.22;2089960;28;20053;-56
2023/07/25 01:28:55;;;;;;;12.02;6.72;;;;;;;15.41;100.00;95205.81;2081880;28;20060;-57
2023/07/25 01:29:56;;;;;;;16.30;7.13;;;;;;;15.42;100.00;95197.03;2082010;28;20072;-57
2023/07/25 01:30:57;;;;;;;10.38;6.03;;;;;;;15.47;100.00;95201.03;2081957;28;20049;-58
2023/07/25 01:31:58;;;;;;;11.35;6.47;;;;;;;15.43;100.00;95196.06;2081715;28;20053;-58
2023/07/25 01:32:59;;;;;;;13.20;6.97;;;;;;;15.47;100.00;95188.78;2081598;28;20119;-58
2023/07/25 01:34:00;;;;;;;10.90;6.30;;;;;;;15.47;100.00;95187.94;2081780;28;20064;-58
2023/07/25 01:35:01;;;;;;;11.55;6.80;;;;;;;15.46;100.00;95191.53;2089420;28;20056;-57
2023/07/25 01:36:02;;;;;;;10.25;6.40;;;;;;;15.43;100.00;95188.19;2089731;28;20056;-57
2023/07/25 01:37:05;;;;;;;12.75;6.45;;;;;;;15.44;100.00;95189.03;2081099;28;20437;-57
2023/07/25 01:38:06;;;;;;;12.52;6.20;;;;;;;15.46;100.00;95179.28;2090034;28;20052;-57
2023/07/25 01:39:07;;;;;;;9.70;6.75;;;;;;;15.47;100.00;95174.88;2089761;28;20049;-57
2023/07/25 01:40:09;;;;;;;10.98;6.85;;;;;;;15.48;100.00;95172.16;2081304;28;20496;-57
2023/07/25 01:41:10;;;;;;;13.57;7.10;;;;;;;15.46;100.00;95168.81;2089270;28;20049;-57
2023/07/25 01:42:11;;;;;;;11.95;6.28;;;;;;;15.47;100.00;95160.00;2090294;28;20511;-57
2023/07/25 01:43:12;;;;;;;13.20;6.40;;;;;;;15.49;100.00;95167.75;2089587;28;20097;-57
2023/07/25 01:44:13;;;;;;;11.30;7.05;;;;;;;15.48;100.00;95166.91;2089798;28;20044;-57
2023/07/25 01:45:14;;;;;;;12.25;6.70;;;;;;;15.50;100.00;95174.63;2089454;28;20432;-57
2023/07/25 01:46:15;;;;;;;13.50;6.50;;;;;;;15.50;100.00;95175.44;2090260;28;20060;-58
2023/07/25 01:47:16;;;;;;;12.52;6.45;;;;;;;15.51;100.00;95181.53;2081765;28;20054;-59
2023/07/25 01:48:17;;;;;;;14.65;6.75;;;;;;;15.50;100.00;95183.28;2089487;28;20515;-59
2023/07/25 01:49:19;;;;;;;13.27;6.28;;;;;;;15.48;100.00;95185.22;2090578;28;20041;-58
2023/07/25 01:50:20;;;;;;;11.98;6.97;;;;;;;15.48;100.00;95176.56;2088772;28;20048;-59
2023/07/25 01:51:21;;;;;;;11.45;6.82;;;;;;;15.48;100.00;95174.75;2081763;28;20426;-58
2023/07/25 01:52:22;;;;;;;11.70;6.68;;;;;;;15.49;100.00;95163.34;2081660;28;20053;-59
2023/07/25 01:53:23;;;;;;;11.80;7.05;;;;;;;15.50;100.00;95159.75;2081500;28;20501;-59
2023/07/25 01:54:24;;;;;;;12.20;6.95;;;;;;;15.49;100.00;95160.72;2089734;28;20045;-59
2023/07/25 01:55:25;;;;;;;13.65;7.10;;;;;;;15.49;100.00;95160.72;2089641;28;20053;-59
2023/07/25 01:56:26;;;;;;;12.82;6.95;;;;;;;15.47;100.00;95157.38;2081745;28;20478;-58
2023/07/25 01:57:27;;;;;;;16.15;6.78;;;;;;;15.50;100.00;95164.97;2081733;28;20056;-58
2023/07/25 01:58:29;;;;;;;16.35;7.47;;;;;;;15.49;100.00;95160.72;2081376;28;20049;-58
2023/07/25 01:59:30;;;;;;;12.25;6.35;;;;;;;15.48;100.00;95158.25;2081729;28;20064;-58
2023/07/25 02:00:31;;;;;;;10.80;6.82;;;;;;;15.49;100.00;95162.50;2081566;28;20045;-58
2023/07/25 02:01:32;;;;;;;12.73;6.55;;;;;;;15.50;100.00;95164.16;2089016;28;20053;-58
2023/07/25 02:02:33;;;;;;;12.38;7.50;;;;;;;15.51;100.00;95161.44;2097324;28;20052;-57
2023/07/25 02:03:34;;;;;;;14.88;7.47;;;;;;;15.52;100.00;95163.09;2090197;28;20053;-58
2023/07/25 02:04:35;;;;;;;17.55;6.68;;;;;;;15.52;100.00;95164.88;2090172;28;20037;-58
2023/07/25 02:05:36;;;;;;;12.88;7.38;;;;;;;15.51;100.00;95166.66;2090361;28;20072;-59
2023/07/25 02:06:37;;;;;;;17.88;7.72;;;;;;;15.51;100.00;95164.06;2088980;28;20567;-59
2023/07/25 02:07:39;;;;;;;16.67;7.57;;;;;;;15.53;100.00;95164.75;2081770;28;20064;-59
2023/07/25 02:08:40;;;;;;;13.95;7.40;;;;;;;15.53;100.00;95161.28;2089774;28;20056;-58
2023/07/25 02:09:41;;;;;;;21.05;7.72;;;;;;;15.52;100.00;95151.78;2088924;28;20611;-59
2023/07/25 02:10:42;;;;;;;14.52;7.57;;;;;;;15.50;100.00;95159.75;2090344;28;20057;-59
2023/07/25 02:11:44;;;;;;;18.48;7.68;;;;;;;15.50;100.00;95146.66;2089539;28;20045;-59
2023/07/25 02:12:45;;;;;;;19.13;7.00;;;;;;;15.54;100.00;95157.75;2089496;28;20049;-59
2023/07/25 02:13:46;;;;;;;19.10;7.63;;;;;;;15.53;100.00;95151.69;2089777;28;20052;-58
2023/07/25 02:14:47;;;;;;;18.70;7.70;;;;;;;15.52;100.00;95151.78;2089558;28;20048;-58
2023/07/25 02:15:48;;;;;;;14.82;7.32;;;;;;;15.51;100.00;95145.72;2089097;28;20052;-59
2023/07/25 02:16:50;;;;;;;25.13;6.93;;;;;;;15.52;100.00;95143.94;2089795;28;20468;-58
2023/07/25 02:17:51;;;;;;;20.15;7.90;;;;;;;15.49;100.00;95133.72;2089324;28;20057;-59
2023/07/25 02:18:52;;;;;;;16.42;7.05;;;;;;;15.52;100.00;95133.47;2080886;28;20481;-58
2023/07/25 02:19:53;;;;;;;18.48;6.85;;;;;;;15.52;100.00;95131.69;2089532;28;20055;-59
2023/07/25 02:20:54;;;;;;;20.30;7.18;;;;;;;15.53;100.00;95128.13;2089350;28;20052;-59
2023/07/25 02:21:56;;;;;;;19.15;6.97;;;;;;;15.53;100.00;95132.50;2081034;28;20068;-59
2023/07/25 02:22:57;;;;;;;16.60;7.25;;;;;;;15.55;100.00;95133.22;2089769;28;20052;-60
2023/07/25 02:23:59;;;;;;;22.13;7.50;;;;;;;15.54;100.00;95124.56;2090756;28;20057;-58
2023/07/25 02:25:00;;;;;;;23.58;8.07;;;;;;;15.51;100.00;95130.03;2089447;28;20064;-58
2023/07/25 02:26:01;;;;;;;19.33;7.03;;;;;;;15.47;100.00;95128.59;2081007;28;20516;-57
2023/07/25 02:27:03;;;;;;;21.50;6.82;;;;;;;15.43;100.00;95114.94;2089505;28;20053;-58
2023/07/25 02:28:04;;;;;;;18.92;7.47;;;;;;;15.40;100.00;95115.19;2098083;28;20052;-58
2023/07/25 02:29:05;;;;;;;19.42;6.82;;;;;;;15.49;100.00;95121.47;2089558;28;20057;-59
2023/07/25 02:30:07;;;;;;;18.70;7.05;;;;;;;15.49;100.00;95123.25;2089302;28;20052;-58
2023/07/25 02:31:08;;;;;;;21.85;7.57;;;;;;;15.49;100.00;95110.19;2089979;28;20056;-58
2023/07/25 02:32:09;;;;;;;21.52;7.10;;;;;;;15.43;100.00;95106.28;2089737;28;20499;-58
2023/07/25 02:33:10;;;;;;;18.33;6.78;;;;;;;15.44;100.00;95108.75;2090193;28;20053;-58
2023/07/25 02:34:11;;;;;;;16.65;6.97;;;;;;;15.39;100.00;95092.59;2090332;28;20057;-58
2023/07/25 02:35:13;;;;;;;20.52;6.53;;;;;;;15.42;100.00;95108.06;2088646;28;20397;-58
2023/07/25 02:36:14;;;;;;;13.55;7.07;;;;;;;15.45;100.00;95112.22;2080893;28;20045;-58
2023/07/25 02:37:15;;;;;;;23.65;7.60;;;;;;;15.45;100.00;95109.59;2089559;28;20456;-57
2023/07/25 02:38:20;;;;;;;17.42;6.45;;;;;;;15.46;100.00;95113.06;2088834;28;20064;-57
2023/07/25 02:39:21;;;;;;;24.83;7.28;;;;;;;15.46;100.00;95115.66;2089633;28;20084;-58
2023/07/25 02:40:22;;;;;;;18.52;6.68;;;;;;;15.43;100.00;95119.34;2089561;28;20040;-58
2023/07/25 02:41:23;;;;;;;19.27;6.80;;;;;;;15.41;100.00;95124.69;2089277;28;20052;-59
2023/07/25 02:42:24;;;;;;;21.95;6.20;;;;;;;15.40;100.00;95127.47;2089215;28;20056;-57
2023/07/25 02:43:25;;;;;;;24.23;7.03;;;;;;;15.40;100.00;95124.84;2089955;28;20511;-57
2023/07/25 02:44:26;;;;;;;18.42;6.25;;;;;;;15.39;100.00;95131.00;2089499;28;20060;-58
2023/07/25 02:45:27;;;;;;;17.00;5.95;;;;;;;15.43;100.00;95133.25;2080825;28;20053;-57
2023/07/25 02:46:28;;;;;;;27.02;7.05;;;;;;;15.42;100.00;95128.13;2088840;28;20053;-57
2023/07/25 02:47:30;;;;;;;19.30;7.20;;;;;;;15.37;100.00;95119.81;2090076;28;20049;-58
2023/07/25 02:48:32;;;;;;;21.25;7.15;;;;;;;15.38;100.00;95118.88;2089978;28;20064;-58
2023/07/25 02:49:33;;;;;;;17.25;6.25;;;;;;;15.38;100.00;95114.47;2089298;28;20072;-59
2023/07/25 02:50:34;;;;;;;17.65;6.70;;;;;;;15.36;100.00;95100.69;2089124;28;20128;-58
2023/07/25 02:51:35;;;;;;;13.15;5.65;;;;;;;15.38;100.00;95101.41;2090049;28;20045;-58
2023/07/25 02:52:36;;;;;;;17.63;6.40;;;;;;;15.38;100.00;95095.34;2089453;28;20056;-57
2023/07/25 02:53:37;;;;;;;18.65;6.32;;;;;;;15.36;100.00;95090.22;2081115;28;20049;-57
2023/07/25 02:54:38;;;;;;;20.05;6.35;;;;;;;15.35;100.00;95083.34;2081098;28;20049;-57
2023/07/25 02:55:40;;;;;;;23.55;6.03;;;;;;;15.35;100.00;95085.13;2089480;28;20033;-58
2023/07/25 02:56:41;;;;;;;20.33;6.43;;;;;;;15.34;100.00;95083.47;2089413;28;20075;-58
2023/07/25 02:57:42;;;;;;;20.02;6.38;;;;;;;15.33;100.00;95082.63;2089389;28;20143;-58
2023/07/25 02:58:43;;;;;;;17.42;6.15;;;;;;;15.31;100.00;95081.91;2090054;28;20044;-58
2023/07/25 02:59:44;;;;;;;23.25;6.72;;;;;;;15.30;100.00;95079.44;2090079;28;20097;-58
2023/07/25 03:00:45;;;;;;;16.48;6.88;;;;;;;15.29;100.00;95075.16;2090280;28;20045;-58
2023/07/25 03:01:46;;;;;;;19.23;6.47;;;;;;;15.28;100.00;95071.69;2088787;28;20048;-58
2023/07/25 03:02:47;;;;;;;22.05;6.78;;;;;;;15.28;100.00;95068.25;2089680;28;20048;-57
2023/07/25 03:03:48;;;;;;;15.93;5.97;;;;;;;15.28;100.00;95061.25;2090021;28;20048;-57
2023/07/25 03:04:49;;;;;;;19.48;5.78;;;;;;;15.26;100.00;95063.16;2090018;28;20059;-58
2023/07/25 03:05:51;;;;;;;17.50;6.25;;;;;;;15.28;100.00;95079.56;2089895;28;20055;-57
2023/07/25 03:06:52;;;;;;;14.70;6.30;;;;;;;15.28;100.00;95071.69;2089845;28;20080;-58
2023/07/25 03:07:53;;;;;;;18.42;6.55;;;;;;;15.29;100.00;95076.00;2090397;28;20056;-58
2023/07/25 03:08:54;;;;;;;16.77;5.65;;;;;;;15.29;100.00;95072.53;2090174;28;20037;-58
2023/07/25 03:09:55;;;;;;;15.27;5.93;;;;;;;15.31;100.00;95071.44;2088937;28;20049;-58
2023/07/25 03:10:56;;;;;;;19.85;6.03;;;;;;;15.31;100.00;95065.41;2089691;28;20044;-57
2023/07/25 03:11:57;;;;;;;11.65;5.70;;;;;;;15.30;100.00;95066.38;2090053;28;20040;-58
2023/07/25 03:12:58;;;;;;;18.17;5.97;;;;;;;15.32;100.00;95067.06;2090014;28;20056;-57
2023/07/25 03:14:00;;;;;;;13.43;5.90;;;;;;;15.31;100.00;95066.22;2089529;28;20049;-58
2023/07/25 03:15:02;;;;;;;18.85;6.32;;;;;;;15.22;100.00;95052.09;2089394;28;20052;-58
2023/07/25 03:16:03;;;;;;;20.60;5.93;;;;;;;15.28;100.00;95065.66;2081192;28;20062;-58
2023/07/25 03:17:04;;;;;;;18.05;5.63;;;;;;;15.31;100.00;95073.25;2088742;28;20504;-58
2023/07/25 03:18:05;;;;;;;19.33;5.57;;;;;;;15.31;100.00;95071.44;2089779;28;20057;-59
2023/07/25 03:19:06;;;;;;;12.02;5.35;;;;;;;15.32;100.00;95073.13;2090095;28;20057;-58
2023/07/25 03:20:07;;;;;;;18.80;4.72;;;;;;;15.33;100.00;95072.16;2090118;28;20048;-58
2023/07/25 03:21:09;;;;;;;17.85;5.85;;;;;;;15.32;100.00;95062.66;2089578;28;20061;-57
2023/07/25 03:22:10;;;;;;;12.07;5.32;;;;;;;15.33;100.00;95064.31;2089343;28;20408;-57
2023/07/25 03:23:11;;;;;;;12.35;4.75;;;;;;;15.34;100.00;95059.91;2081125;28;20065;-57
2023/07/25 03:24:12;;;;;;;11.75;4.60;;;;;;;15.31;100.00;95068.00;2081313;28;20053;-58
2023/07/25 03:25:13;;;;;;;12.48;5.22;;;;;;;15.32;100.00;95061.84;2081114;28;20057;-58
2023/07/25 03:26:14;;;;;;;12.15;4.38;;;;;;;15.26;100.00;95044.00;2089507;28;20045;-59
2023/07/25 03:27:16;;;;;;;16.40;4.75;;;;;;;15.30;100.00;95053.28;2088977;28;20064;-58
2023/07/25 03:28:17;;;;;;;11.70;4.53;;;;;;;15.31;100.00;95057.56;2088938;28;20053;-59
2023/07/25 03:29:18;;;;;;;15.60;5.07;;;;;;;15.28;100.00;95052.56;2090176;28;20061;-58
2023/07/25 03:30:20;;;;;;;11.05;4.57;;;;;;;15.24;100.00;95051.19;2089846;28;20049;-59
2023/07/25 03:31:21;;;;;;;16.60;5.10;;;;;;;15.20;100.00;95048.78;2089843;28;20061;-57
2023/07/25 03:32:22;;;;;;;12.18;4.57;;;;;;;15.27;100.00;95053.53;2088635;28;20128;-57
2023/07/25 03:33:23;;;;;;;11.68;5.00;;;;;;;15.24;100.00;95048.56;2089404;28;20053;-57
2023/07/25 03:34:24;;;;;;;12.43;5.15;;;;;;;15.25;100.00;95058.88;2089981;28;20049;-58
2023/07/25 03:35:25;;;;;;;11.75;5.10;;;;;;;15.18;100.00;95062.94;2089051;28;20057;-57
2023/07/25 03:36:26;;;;;;;14.45;5.22;;;;;;;15.22;100.00;95070.41;2080959;28;20053;-57
2023/07/25 03:37:27;;;;;;;10.40;4.47;;;;;;;15.21;100.00;95076.63;2089230;28;20060;-58
2023/07/25 03:38:28;;;;;;;10.85;4.35;;;;;;;15.19;100.00;95073.28;2088909;28;20500;-57
2023/07/25 03:39:30;;;;;;;16.65;5.03;;;;;;;15.11;100.00;95064.41;2088875;28;20053;-58
2023/07/25 03:40:31;;;;;;;15.55;4.38;;;;;;;15.17;100.00;95069.94;2089779;28;20075;-57
2023/07/25 03:41:32;;;;;;;10.57;4.95;;;;;;;15.15;99.86;95071.03;2089799;28;20519;-58
2023/07/25 03:42:33;;;;;;;9.40;4.30;;;;;;;15.11;100.00;95069.63;2088495;28;20056;-58
2023/07/25 03:43:34;;;;;;;11.57;4.60;;;;;;;15.09;100.00;95080.19;2089110;28;20044;-57
2023/07/25 03:44:35;;;;;;;8.75;4.22;;;;;;;15.01;100.00;95072.13;2089391;28;20041;-58
2023/07/25 03:45:36;;;;;;;11.63;4.38;;;;;;;15.05;100.00;95081.41;2089215;28;20404;-58
2023/07/25 03:46:37;;;;;;;12.30;4.32;;;;;;;15.04;99.35;95090.19;2089676;28;20049;-57
2023/07/25 03:47:38;;;;;;;10.52;4.15;;;;;;;15.02;99.74;95089.47;2088611;28;20053;-58
2023/07/25 03:48:40;;;;;;;11.68;3.88;;;;;;;14.99;100.00;95090.56;2081033;28;20116;-58
2023/07/25 03:49:41;;;;;;;9.63;4.43;;;;;;;14.99;99.93;95087.09;2080383;28;20061;-58
2023/07/25 03:50:42;;;;;;;9.43;4.88;;;;;;;14.88;99.45;95074.06;2089576;28;20060;-58
2023/07/25 03:51:43;;;;;;;13.65;4.65;;;;;;;14.92;99.35;95083.31;2090588;28;20408;-58
2023/07/25 03:52:44;;;;;;;11.68;4.78;;;;;;;14.92;100.00;95089.38;2091251;28;20086;-58
2023/07/25 03:53:45;;;;;;;11.68;5.10;;;;;;;14.91;99.95;95089.50;2091246;28;20041;-58
2023/07/25 03:54:46;;;;;;;8.45;4.40;;;;;;;14.89;100.00;95099.22;2091522;28;20400;-57
2023/07/25 03:55:47;;;;;;;10.57;4.47;;;;;;;14.88;100.00;95090.56;2091273;28;20057;-58
2023/07/25 03:56:49;;;;;;;10.40;3.95;;;;;;;14.85;99.57;95079.53;2091509;28;20064;-58
2023/07/25 03:57:50;;;;;;;10.38;4.43;;;;;;;14.86;100.00;95092.50;2091246;28;20089;-58
2023/07/25 03:58:51;;;;;;;9.95;3.92;;;;;;;14.86;100.00;95089.00;2091015;28;20045;-58
2023/07/25 03:59:52;;;;;;;14.32;4.25;;;;;;;14.84;99.65;95086.53;2089666;28;20049;-57
2023/07/25 04:00:54;;;;;;;12.60;4.22;;;;;;;14.85;100.00;95092.59;2090706;28;20049;-58
2023/07/25 04:01:55;;;;;;;9.48;3.88;;;;;;;14.84;100.00;95089.16;2090484;28;20108;-58
2023/07/25 04:02:56;;;;;;;8.65;4.10;;;;;;;14.82;100.00;95092.84;2090956;28;20064;-58
2023/07/25 04:03:57;;;;;;;10.25;4.13;;;;;;;14.84;100.00;95090.94;2091136;28;20484;-59
2023/07/25 04:04:58;;;;;;;9.20;3.67;;;;;;;14.82;100.00;95082.38;2090809;28;20052;-58
2023/07/25 04:05:59;;;;;;;6.03;3.83;;;;;;;14.82;99.99;95071.94;2091615;28;20079;-58
2023/07/25 04:07:00;;;;;;;8.55;4.28;;;;;;;14.83;100.00;95070.97;2090955;28;20373;-58
2023/07/25 04:08:01;;;;;;;9.60;4.85;;;;;;;14.82;100.00;95075.38;2090086;28;20064;-57
2023/07/25 04:09:02;;;;;;;7.22;4.10;;;;;;;14.83;100.00;95070.97;2090589;28;20044;-58
2023/07/25 04:10:04;;;;;;;7.10;4.10;;;;;;;14.83;100.00;95071.78;2090771;28;20045;-59
2023/07/25 04:11:06;;;;;;;7.20;3.55;;;;;;;14.82;100.00;95075.38;2082639;28;20493;-58
2023/07/25 04:12:07;;;;;;;13.48;4.78;;;;;;;14.82;99.84;95077.97;2082471;28;20060;-57
2023/07/25 04:13:08;;;;;;;9.80;4.53;;;;;;;14.80;100.00;95086.91;2090904;28;20052;-58
2023/07/25 04:14:09;;;;;;;6.35;4.25;;;;;;;14.77;100.00;95083.56;2098726;28;20424;-57
2023/07/25 04:15:10;;;;;;;9.93;4.22;;;;;;;14.77;100.00;95083.56;2090174;28;20053;-57
2023/07/25 04:16:11;;;;;;;10.07;4.45;;;;;;;14.78;100.00;95089.63;2090729;28;20044;-58
2023/07/25 04:17:12;;;;;;;11.38;4.60;;;;;;;14.78;100.00;95090.47;2091094;28;20037;-58
2023/07/25 04:18:13;;;;;;;10.30;4.35;;;;;;;14.81;100.00;95093.78;2090801;28;20090;-58
2023/07/25 04:19:15;;;;;;;10.40;4.85;;;;;;;14.82;100.00;95096.28;2091057;28;20064;-58
2023/07/25 04:20:16;;;;;;;7.57;4.22;;;;;;;14.82;100.00;95098.06;2091075;28;20045;-58
2023/07/25 04:21:17;;;;;;;11.48;5.07;;;;;;;14.81;100.00;95099.84;2091009;28;20380;-59
2023/07/25 04:22:18;;;;;;;8.43;4.60;;;;;;;14.82;100.00;95095.44;2091011;28;20064;-57
2023/07/25 04:23:21;;;;;;;10.07;4.97;;;;;;;14.84;100.00;95097.00;2090536;28;20056;-58
2023/07/25 04:24:22;;;;;;;8.52;5.00;;;;;;;14.84;100.00;95099.63;2089793;28;20076;-57
2023/07/25 04:25:24;;;;;;;9.45;4.80;;;;;;;14.86;100.00;95102.94;2091096;28;20045;-57
2023/07/25 04:26:25;;;;;;;11.07;4.65;;;;;;;14.86;100.00;95102.09;2091080;28;20075;-57
2023/07/25 04:27:28;;;;;;;9.65;4.78;;;;;;;14.88;100.00;95097.56;2090904;28;20048;-57
2023/07/25 04:28:29;;;;;;;7.53;4.57;;;;;;;14.90;100.00;95087.84;2090987;28;20057;-57
2023/07/25 04:29:30;;;;;;;7.72;4.95;;;;;;;14.92;100.00;95094.63;2091052;28;20417;-59
2023/07/25 04:30:31;;;;;;;7.82;4.47;;;;;;;14.94;100.00;95104.94;2091146;28;20051;-58
2023/07/25 04:31:32;;;;;;;7.43;4.65;;;;;;;14.94;100.00;95094.47;2091016;28;20044;-58
2023/07/25 04:32:33;;;;;;;10.07;5.25;;;;;;;14.96;100.00;95097.81;2090927;28;20396;-58
2023/07/25 04:33:35;;;;;;;8.38;4.93;;;;;;;14.97;100.00;95108.16;2091132;28;20040;-57
2023/07/25 04:34:36;;;;;;;9.20;4.85;;;;;;;14.98;100.00;95104.56;2091019;28;20060;-57
2023/07/25 04:35:37;;;;;;;11.45;4.63;;;;;;;14.99;100.00;95101.03;2090749;28;20064;-58
2023/07/25 04:36:38;;;;;;;8.68;4.75;;;;;;;14.98;100.00;95096.72;2090265;28;20423;-58
2023/07/25 04:37:39;;;;;;;9.77;4.55;;;;;;;14.97;100.00;95102.94;2090801;28;20061;-58
2023/07/25 04:38:40;;;;;;;10.35;4.85;;;;;;;14.88;100.00;95087.13;2082112;28;20049;-57
2023/07/25 04:39:41;;;;;;;7.93;4.90;;;;;;;15.00;100.00;95112.31;2081972;28;20048;-58
2023/07/25 04:40:43;;;;;;;7.90;4.45;;;;;;;14.87;100.00;95093.31;2090776;28;20045;-58
2023/07/25 04:41:44;;;;;;;8.18;5.00;;;;;;;14.85;100.00;95082.13;2090733;28;20484;-58
2023/07/25 04:42:45;;;;;;;6.13;4.13;;;;;;;14.98;99.73;95103.75;2089994;28;20049;-58